sensor_id;sensor_type;location;lat;lon;timestamp;P1;durP1;ratioP1;P2;durP2;ratioP2
50337;SDS011;46221;51.178;5.900;2022-12-07T00:01:37;7.97;;;5.60;;
50337;SDS011;46221;51.178;5.900;2022-12-07T00:04:05;7.88;;;5.20;;
50337;SDS011;46221;51.178;5.900;2022-12-07T00:06:32;6.78;;;4.25;;
50337;SDS011;46221;51.178;5.900;2022-12-07T00:08:59;6.68;;;4.70;;
50337;SDS011;46221;51.178;5.900;2022-12-07T00:11:25;5.97;;;4.07;;
50337;SDS011;46221;51.178;5.900;2022-12-07T00:13:53;8.70;;;4.28;;
50337;SDS011;46221;51.178;5.900;2022-12-07T00:16:20;6.75;;;4.40;;
50337;SDS011;46221;51.178;5.900;2022-12-07T00:18:49;6.70;;;4.13;;
50337;SDS011;46221;51.178;5.900;2022-12-07T00:21:18;7.93;;;5.15;;
50337;SDS011;46221;51.178;5.900;2022-12-07T00:23:45;5.40;;;4.10;;
50337;SDS011;46221;51.178;5.900;2022-12-07T00:26:18;8.27;;;4.00;;
50337;SDS011;46221;51.178;5.900;2022-12-07T00:28:45;6.38;;;4.13;;
50337;SDS011;46221;51.178;5.900;2022-12-07T00:31:12;5.82;;;4.05;;
50337;SDS011;46221;51.178;5.900;2022-12-07T00:33:39;5.78;;;3.92;;
50337;SDS011;46221;51.178;5.900;2022-12-07T00:36:07;7.70;;;4.63;;
50337;SDS011;46221;51.178;5.900;2022-12-07T00:38:34;6.15;;;4.65;;
50337;SDS011;46221;51.178;5.900;2022-12-07T00:41:02;7.30;;;4.82;;
50337;SDS011;46221;51.178;5.900;2022-12-07T00:43:29;7.53;;;4.65;;
50337;SDS011;46221;51.178;5.900;2022-12-07T00:45:56;6.85;;;4.82;;
50337;SDS011;46221;51.178;5.900;2022-12-07T00:48:23;7.82;;;4.68;;
50337;SDS011;46221;51.178;5.900;2022-12-07T00:50:49;7.30;;;4.40;;
50337;SDS011;46221;51.178;5.900;2022-12-07T00:53:19;6.90;;;5.30;;
50337;SDS011;46221;51.178;5.900;2022-12-07T00:55:45;7.95;;;4.82;;
50337;SDS011;46221;51.178;5.900;2022-12-07T00:58:12;6.45;;;4.10;;
50337;SDS011;46221;51.178;5.900;2022-12-07T01:00:39;6.50;;;4.30;;
50337;SDS011;46221;51.178;5.900;2022-12-07T01:03:06;6.15;;;4.57;;
50337;SDS011;46221;51.178;5.900;2022-12-07T01:05:33;7.25;;;5.20;;
50337;SDS011;46221;51.178;5.900;2022-12-07T01:07:59;7.38;;;4.80;;
50337;SDS011;46221;51.178;5.900;2022-12-07T01:10:26;5.95;;;4.07;;
50337;SDS011;46221;51.178;5.900;2022-12-07T01:12:52;6.15;;;4.03;;
50337;SDS011;46221;51.178;5.900;2022-12-07T01:15:19;8.40;;;4.78;;
50337;SDS011;46221;51.178;5.900;2022-12-07T01:17:45;6.20;;;4.00;;
50337;SDS011;46221;51.178;5.900;2022-12-07T01:20:12;6.50;;;4.15;;
50337;SDS011;46221;51.178;5.900;2022-12-07T01:22:38;6.85;;;3.85;;
50337;SDS011;46221;51.178;5.900;2022-12-07T01:25:05;7.18;;;4.65;;
50337;SDS011;46221;51.178;5.900;2022-12-07T01:27:32;7.18;;;4.97;;
50337;SDS011;46221;51.178;5.900;2022-12-07T01:30:00;7.35;;;5.15;;
50337;SDS011;46221;51.178;5.900;2022-12-07T01:32:27;7.32;;;4.30;;
50337;SDS011;46221;51.178;5.900;2022-12-07T01:34:54;5.88;;;4.60;;
50337;SDS011;46221;51.178;5.900;2022-12-07T01:37:21;6.15;;;4.13;;
50337;SDS011;46221;51.178;5.900;2022-12-07T01:39:50;7.63;;;4.65;;
50337;SDS011;46221;51.178;5.900;2022-12-07T01:42:17;7.50;;;4.35;;
50337;SDS011;46221;51.178;5.900;2022-12-07T01:47:29;8.63;;;4.80;;
50337;SDS011;46221;51.178;5.900;2022-12-07T01:49:55;6.45;;;4.30;;
50337;SDS011;46221;51.178;5.900;2022-12-07T01:52:23;7.05;;;4.82;;
50337;SDS011;46221;51.178;5.900;2022-12-07T01:54:51;5.82;;;4.63;;
50337;SDS011;46221;51.178;5.900;2022-12-07T01:57:19;6.93;;;4.93;;
50337;SDS011;46221;51.178;5.900;2022-12-07T01:59:45;9.25;;;5.32;;
50337;SDS011;46221;51.178;5.900;2022-12-07T02:02:17;8.27;;;6.05;;
50337;SDS011;46221;51.178;5.900;2022-12-07T02:04:44;9.50;;;4.80;;
50337;SDS011;46221;51.178;5.900;2022-12-07T02:07:11;7.47;;;4.85;;
50337;SDS011;46221;51.178;5.900;2022-12-07T02:09:37;6.70;;;4.75;;
50337;SDS011;46221;51.178;5.900;2022-12-07T02:12:04;6.43;;;4.53;;
50337;SDS011;46221;51.178;5.900;2022-12-07T02:14:30;6.07;;;5.05;;
50337;SDS011;46221;51.178;5.900;2022-12-07T02:24:45;7.20;;;5.47;;
50337;SDS011;46221;51.178;5.900;2022-12-07T02:27:22;8.35;;;5.32;;
50337;SDS011;46221;51.178;5.900;2022-12-07T02:32:23;5.78;;;4.65;;
50337;SDS011;46221;51.178;5.900;2022-12-07T02:34:58;7.57;;;5.45;;
50337;SDS011;46221;51.178;5.900;2022-12-07T02:40:19;7.57;;;5.22;;
50337;SDS011;46221;51.178;5.900;2022-12-07T02:42:48;7.70;;;4.97;;
50337;SDS011;46221;51.178;5.900;2022-12-07T02:45:17;7.00;;;5.03;;
50337;SDS011;46221;51.178;5.900;2022-12-07T02:47:45;7.90;;;5.82;;
50337;SDS011;46221;51.178;5.900;2022-12-07T02:50:14;7.43;;;5.25;;
50337;SDS011;46221;51.178;5.900;2022-12-07T02:52:43;8.40;;;5.35;;
50337;SDS011;46221;51.178;5.900;2022-12-07T02:55:09;7.18;;;5.40;;
50337;SDS011;46221;51.178;5.900;2022-12-07T02:57:52;8.57;;;6.13;;
50337;SDS011;46221;51.178;5.900;2022-12-07T03:00:21;7.22;;;5.47;;
50337;SDS011;46221;51.178;5.900;2022-12-07T03:02:56;7.53;;;5.72;;
50337;SDS011;46221;51.178;5.900;2022-12-07T03:05:31;6.90;;;5.20;;
50337;SDS011;46221;51.178;5.900;2022-12-07T03:08:06;7.38;;;5.00;;
50337;SDS011;46221;51.178;5.900;2022-12-07T03:13:50;6.65;;;4.30;;
50337;SDS011;46221;51.178;5.900;2022-12-07T03:16:14;7.00;;;5.07;;
50337;SDS011;46221;51.178;5.900;2022-12-07T03:18:43;9.70;;;4.97;;
50337;SDS011;46221;51.178;5.900;2022-12-07T03:21:12;7.32;;;5.25;;
50337;SDS011;46221;51.178;5.900;2022-12-07T03:23:40;8.07;;;4.95;;
50337;SDS011;46221;51.178;5.900;2022-12-07T03:26:08;6.55;;;4.63;;
50337;SDS011;46221;51.178;5.900;2022-12-07T03:28:36;6.95;;;4.82;;
50337;SDS011;46221;51.178;5.900;2022-12-07T03:31:28;8.88;;;5.20;;
50337;SDS011;46221;51.178;5.900;2022-12-07T03:33:54;9.07;;;5.45;;
50337;SDS011;46221;51.178;5.900;2022-12-07T03:36:26;7.97;;;4.85;;
50337;SDS011;46221;51.178;5.900;2022-12-07T03:38:57;7.45;;;4.93;;
50337;SDS011;46221;51.178;5.900;2022-12-07T03:41:27;7.28;;;4.95;;
50337;SDS011;46221;51.178;5.900;2022-12-07T03:43:55;6.28;;;4.90;;
50337;SDS011;46221;51.178;5.900;2022-12-07T03:46:32;5.93;;;4.75;;
50337;SDS011;46221;51.178;5.900;2022-12-07T03:49:12;5.68;;;4.80;;
50337;SDS011;46221;51.178;5.900;2022-12-07T03:51:45;7.88;;;5.10;;
50337;SDS011;46221;51.178;5.900;2022-12-07T03:54:14;7.80;;;5.30;;
50337;SDS011;46221;51.178;5.900;2022-12-07T03:56:42;6.22;;;4.35;;
50337;SDS011;46221;51.178;5.900;2022-12-07T03:59:09;6.38;;;4.10;;
50337;SDS011;46221;51.178;5.900;2022-12-07T04:01:35;5.68;;;4.53;;
50337;SDS011;46221;51.178;5.900;2022-12-07T04:04:02;6.60;;;4.55;;
50337;SDS011;46221;51.178;5.900;2022-12-07T04:06:28;6.70;;;4.47;;
50337;SDS011;46221;51.178;5.900;2022-12-07T04:08:54;7.28;;;5.10;;
50337;SDS011;46221;51.178;5.900;2022-12-07T04:11:21;6.20;;;3.97;;
50337;SDS011;46221;51.178;5.900;2022-12-07T04:13:47;4.90;;;4.20;;
50337;SDS011;46221;51.178;5.900;2022-12-07T04:16:32;6.72;;;4.40;;
50337;SDS011;46221;51.178;5.900;2022-12-07T04:19:03;6.43;;;4.30;;
50337;SDS011;46221;51.178;5.900;2022-12-07T04:21:29;5.88;;;4.47;;
50337;SDS011;46221;51.178;5.900;2022-12-07T04:23:56;6.40;;;4.68;;
50337;SDS011;46221;51.178;5.900;2022-12-07T04:26:22;6.53;;;4.95;;
50337;SDS011;46221;51.178;5.900;2022-12-07T04:28:48;7.53;;;4.63;;
50337;SDS011;46221;51.178;5.900;2022-12-07T04:31:14;7.10;;;5.15;;
50337;SDS011;46221;51.178;5.900;2022-12-07T04:33:41;5.50;;;4.20;;
50337;SDS011;46221;51.178;5.900;2022-12-07T04:36:07;7.18;;;4.47;;
50337;SDS011;46221;51.178;5.900;2022-12-07T04:38:33;7.10;;;4.30;;
50337;SDS011;46221;51.178;5.900;2022-12-07T04:41:04;5.07;;;4.30;;
50337;SDS011;46221;51.178;5.900;2022-12-07T04:43:30;6.45;;;4.40;;
50337;SDS011;46221;51.178;5.900;2022-12-07T04:45:56;6.80;;;4.43;;
50337;SDS011;46221;51.178;5.900;2022-12-07T04:48:23;6.70;;;4.30;;
50337;SDS011;46221;51.178;5.900;2022-12-07T04:50:49;6.35;;;3.75;;
50337;SDS011;46221;51.178;5.900;2022-12-07T04:53:16;5.97;;;3.85;;
50337;SDS011;46221;51.178;5.900;2022-12-07T04:55:43;5.45;;;3.53;;
50337;SDS011;46221;51.178;5.900;2022-12-07T04:58:09;6.43;;;4.32;;
50337;SDS011;46221;51.178;5.900;2022-12-07T05:00:35;6.25;;;4.20;;
50337;SDS011;46221;51.178;5.900;2022-12-07T05:03:02;6.47;;;4.45;;
50337;SDS011;46221;51.178;5.900;2022-12-07T05:05:28;6.70;;;4.50;;
50337;SDS011;46221;51.178;5.900;2022-12-07T05:07:54;6.05;;;3.90;;
50337;SDS011;46221;51.178;5.900;2022-12-07T05:10:21;5.68;;;4.05;;
50337;SDS011;46221;51.178;5.900;2022-12-07T05:12:47;5.15;;;3.78;;
50337;SDS011;46221;51.178;5.900;2022-12-07T05:15:14;7.15;;;3.88;;
50337;SDS011;46221;51.178;5.900;2022-12-07T05:17:40;4.97;;;3.58;;
50337;SDS011;46221;51.178;5.900;2022-12-07T05:20:07;5.45;;;3.20;;
50337;SDS011;46221;51.178;5.900;2022-12-07T05:22:33;5.75;;;3.50;;
50337;SDS011;46221;51.178;5.900;2022-12-07T05:24:59;5.13;;;3.28;;
50337;SDS011;46221;51.178;5.900;2022-12-07T05:27:26;6.97;;;3.72;;
50337;SDS011;46221;51.178;5.900;2022-12-07T05:29:52;5.65;;;3.33;;
50337;SDS011;46221;51.178;5.900;2022-12-07T05:32:18;5.53;;;3.60;;
50337;SDS011;46221;51.178;5.900;2022-12-07T05:34:45;5.25;;;3.20;;
50337;SDS011;46221;51.178;5.900;2022-12-07T05:37:11;5.45;;;3.17;;
50337;SDS011;46221;51.178;5.900;2022-12-07T05:39:37;6.35;;;3.70;;
50337;SDS011;46221;51.178;5.900;2022-12-07T05:42:07;4.68;;;2.95;;
50337;SDS011;46221;51.178;5.900;2022-12-07T05:44:44;4.93;;;2.90;;
50337;SDS011;46221;51.178;5.900;2022-12-07T05:47:11;4.45;;;2.67;;
50337;SDS011;46221;51.178;5.900;2022-12-07T05:49:38;3.55;;;2.55;;
50337;SDS011;46221;51.178;5.900;2022-12-07T05:52:04;4.38;;;2.58;;
50337;SDS011;46221;51.178;5.900;2022-12-07T05:54:31;4.20;;;2.70;;
50337;SDS011;46221;51.178;5.900;2022-12-07T05:56:57;4.55;;;2.60;;
50337;SDS011;46221;51.178;5.900;2022-12-07T05:59:23;4.95;;;3.08;;
50337;SDS011;46221;51.178;5.900;2022-12-07T06:04:16;4.75;;;2.70;;
50337;SDS011;46221;51.178;5.900;2022-12-07T06:06:43;4.75;;;3.00;;
50337;SDS011;46221;51.178;5.900;2022-12-07T06:09:10;5.97;;;2.97;;
50337;SDS011;46221;51.178;5.900;2022-12-07T06:11:36;5.85;;;2.90;;
50337;SDS011;46221;51.178;5.900;2022-12-07T06:14:21;4.82;;;2.92;;
50337;SDS011;46221;51.178;5.900;2022-12-07T06:16:47;4.95;;;3.67;;
50337;SDS011;46221;51.178;5.900;2022-12-07T06:19:14;4.60;;;3.45;;
50337;SDS011;46221;51.178;5.900;2022-12-07T06:21:40;5.65;;;3.65;;
50337;SDS011;46221;51.178;5.900;2022-12-07T06:24:07;6.15;;;3.85;;
50337;SDS011;46221;51.178;5.900;2022-12-07T06:26:33;6.22;;;3.65;;
50337;SDS011;46221;51.178;5.900;2022-12-07T06:28:59;8.27;;;3.88;;
50337;SDS011;46221;51.178;5.900;2022-12-07T06:31:26;6.78;;;3.80;;
50337;SDS011;46221;51.178;5.900;2022-12-07T06:33:56;6.43;;;3.70;;
50337;SDS011;46221;51.178;5.900;2022-12-07T06:36:23;6.88;;;3.38;;
50337;SDS011;46221;51.178;5.900;2022-12-07T06:38:52;12.10;;;3.55;;
50337;SDS011;46221;51.178;5.900;2022-12-07T06:41:19;9.02;;;3.90;;
50337;SDS011;46221;51.178;5.900;2022-12-07T06:43:45;8.23;;;3.75;;
50337;SDS011;46221;51.178;5.900;2022-12-07T06:46:19;8.40;;;3.92;;
50337;SDS011;46221;51.178;5.900;2022-12-07T06:48:46;5.93;;;3.75;;
50337;SDS011;46221;51.178;5.900;2022-12-07T06:51:12;9.45;;;4.72;;
50337;SDS011;46221;51.178;5.900;2022-12-07T06:53:40;7.78;;;4.50;;
50337;SDS011;46221;51.178;5.900;2022-12-07T06:56:06;7.88;;;4.55;;
50337;SDS011;46221;51.178;5.900;2022-12-07T06:58:33;8.10;;;4.20;;
50337;SDS011;46221;51.178;5.900;2022-12-07T07:00:59;7.82;;;4.18;;
50337;SDS011;46221;51.178;5.900;2022-12-07T07:03:25;6.43;;;4.38;;
50337;SDS011;46221;51.178;5.900;2022-12-07T07:05:52;6.90;;;4.47;;
50337;SDS011;46221;51.178;5.900;2022-12-07T07:08:18;6.63;;;4.25;;
50337;SDS011;46221;51.178;5.900;2022-12-07T07:10:48;6.75;;;3.63;;
50337;SDS011;46221;51.178;5.900;2022-12-07T07:13:14;6.05;;;3.80;;
50337;SDS011;46221;51.178;5.900;2022-12-07T07:15:40;7.95;;;3.90;;
50337;SDS011;46221;51.178;5.900;2022-12-07T07:18:07;5.93;;;3.80;;
50337;SDS011;46221;51.178;5.900;2022-12-07T07:20:33;4.15;;;2.80;;
50337;SDS011;46221;51.178;5.900;2022-12-07T07:23:00;4.75;;;2.85;;
50337;SDS011;46221;51.178;5.900;2022-12-07T07:25:26;5.03;;;2.63;;
50337;SDS011;46221;51.178;5.900;2022-12-07T07:27:52;6.57;;;2.80;;
50337;SDS011;46221;51.178;5.900;2022-12-07T07:30:19;7.05;;;3.10;;
50337;SDS011;46221;51.178;5.900;2022-12-07T07:32:45;6.35;;;3.10;;
50337;SDS011;46221;51.178;5.900;2022-12-07T07:35:11;6.15;;;2.75;;
50337;SDS011;46221;51.178;5.900;2022-12-07T07:37:38;4.95;;;3.10;;
50337;SDS011;46221;51.178;5.900;2022-12-07T07:40:04;8.57;;;3.78;;
50337;SDS011;46221;51.178;5.900;2022-12-07T07:42:31;4.97;;;3.00;;
50337;SDS011;46221;51.178;5.900;2022-12-07T07:44:57;6.10;;;4.15;;
50337;SDS011;46221;51.178;5.900;2022-12-07T07:47:23;5.82;;;3.17;;
50337;SDS011;46221;51.178;5.900;2022-12-07T07:49:50;7.10;;;3.90;;
50337;SDS011;46221;51.178;5.900;2022-12-07T07:52:16;6.07;;;3.55;;
50337;SDS011;46221;51.178;5.900;2022-12-07T07:54:42;7.82;;;4.72;;
50337;SDS011;46221;51.178;5.900;2022-12-07T07:57:09;6.53;;;4.18;;
50337;SDS011;46221;51.178;5.900;2022-12-07T07:59:35;6.07;;;3.78;;
50337;SDS011;46221;51.178;5.900;2022-12-07T08:02:01;6.22;;;3.90;;
50337;SDS011;46221;51.178;5.900;2022-12-07T08:04:28;7.97;;;4.13;;
50337;SDS011;46221;51.178;5.900;2022-12-07T08:06:54;8.85;;;5.07;;
50337;SDS011;46221;51.178;5.900;2022-12-07T08:09:21;6.57;;;4.18;;
50337;SDS011;46221;51.178;5.900;2022-12-07T08:11:47;6.20;;;4.40;;
50337;SDS011;46221;51.178;5.900;2022-12-07T08:14:13;7.93;;;4.18;;
50337;SDS011;46221;51.178;5.900;2022-12-07T08:16:39;7.32;;;4.00;;
50337;SDS011;46221;51.178;5.900;2022-12-07T08:19:06;5.75;;;4.00;;
50337;SDS011;46221;51.178;5.900;2022-12-07T08:21:32;7.25;;;4.60;;
50337;SDS011;46221;51.178;5.900;2022-12-07T08:23:58;7.25;;;4.05;;
50337;SDS011;46221;51.178;5.900;2022-12-07T08:26:25;6.20;;;4.20;;
50337;SDS011;46221;51.178;5.900;2022-12-07T08:28:52;8.05;;;4.25;;
50337;SDS011;46221;51.178;5.900;2022-12-07T08:31:19;7.55;;;4.25;;
50337;SDS011;46221;51.178;5.900;2022-12-07T08:33:46;7.75;;;5.45;;
50337;SDS011;46221;51.178;5.900;2022-12-07T08:36:12;7.32;;;4.55;;
50337;SDS011;46221;51.178;5.900;2022-12-07T08:38:39;6.05;;;4.85;;
50337;SDS011;46221;51.178;5.900;2022-12-07T08:41:16;7.30;;;5.55;;
50337;SDS011;46221;51.178;5.900;2022-12-07T08:43:44;6.05;;;4.35;;
50337;SDS011;46221;51.178;5.900;2022-12-07T08:46:18;6.43;;;4.30;;
50337;SDS011;46221;51.178;5.900;2022-12-07T08:48:52;6.18;;;4.50;;
50337;SDS011;46221;51.178;5.900;2022-12-07T08:51:20;8.27;;;5.00;;
50337;SDS011;46221;51.178;5.900;2022-12-07T08:53:48;6.68;;;4.68;;
50337;SDS011;46221;51.178;5.900;2022-12-07T08:56:15;7.13;;;4.68;;
50337;SDS011;46221;51.178;5.900;2022-12-07T08:58:41;5.82;;;3.70;;
50337;SDS011;46221;51.178;5.900;2022-12-07T09:01:08;6.35;;;4.20;;
50337;SDS011;46221;51.178;5.900;2022-12-07T09:03:34;5.60;;;4.10;;
50337;SDS011;46221;51.178;5.900;2022-12-07T09:06:00;8.70;;;5.18;;
50337;SDS011;46221;51.178;5.900;2022-12-07T09:08:31;8.00;;;5.32;;
50337;SDS011;46221;51.178;5.900;2022-12-07T09:10:59;8.05;;;5.03;;
50337;SDS011;46221;51.178;5.900;2022-12-07T09:13:25;6.10;;;4.50;;
50337;SDS011;46221;51.178;5.900;2022-12-07T09:15:51;6.00;;;4.32;;
50337;SDS011;46221;51.178;5.900;2022-12-07T09:18:18;7.30;;;4.82;;
50337;SDS011;46221;51.178;5.900;2022-12-07T09:20:44;6.70;;;4.32;;
50337;SDS011;46221;51.178;5.900;2022-12-07T09:23:10;7.63;;;4.70;;
50337;SDS011;46221;51.178;5.900;2022-12-07T09:25:36;6.47;;;4.35;;
50337;SDS011;46221;51.178;5.900;2022-12-07T09:28:03;7.32;;;4.05;;
50337;SDS011;46221;51.178;5.900;2022-12-07T09:30:29;7.55;;;4.13;;
50337;SDS011;46221;51.178;5.900;2022-12-07T09:32:56;6.40;;;4.00;;
50337;SDS011;46221;51.178;5.900;2022-12-07T09:35:23;6.88;;;4.45;;
50337;SDS011;46221;51.178;5.900;2022-12-07T09:37:49;7.13;;;4.60;;
50337;SDS011;46221;51.178;5.900;2022-12-07T09:40:16;5.85;;;4.22;;
50337;SDS011;46221;51.178;5.900;2022-12-07T09:42:44;6.47;;;4.10;;
50337;SDS011;46221;51.178;5.900;2022-12-07T09:45:15;7.22;;;4.32;;
50337;SDS011;46221;51.178;5.900;2022-12-07T09:47:42;7.28;;;4.55;;
50337;SDS011;46221;51.178;5.900;2022-12-07T09:50:13;7.25;;;4.38;;
50337;SDS011;46221;51.178;5.900;2022-12-07T09:52:39;7.28;;;4.47;;
50337;SDS011;46221;51.178;5.900;2022-12-07T09:55:11;6.03;;;4.40;;
50337;SDS011;46221;51.178;5.900;2022-12-07T09:57:37;7.75;;;3.95;;
50337;SDS011;46221;51.178;5.900;2022-12-07T10:00:15;9.20;;;4.57;;
50337;SDS011;46221;51.178;5.900;2022-12-07T10:03:03;5.70;;;4.32;;
50337;SDS011;46221;51.178;5.900;2022-12-07T10:05:33;6.93;;;3.90;;
50337;SDS011;46221;51.178;5.900;2022-12-07T10:08:00;6.80;;;4.18;;
50337;SDS011;46221;51.178;5.900;2022-12-07T10:10:31;7.85;;;4.32;;
50337;SDS011;46221;51.178;5.900;2022-12-07T10:13:04;8.25;;;4.75;;
50337;SDS011;46221;51.178;5.900;2022-12-07T10:20:46;7.53;;;4.35;;
50337;SDS011;46221;51.178;5.900;2022-12-07T10:23:16;7.22;;;4.00;;
50337;SDS011;46221;51.178;5.900;2022-12-07T10:25:43;5.55;;;3.83;;
50337;SDS011;46221;51.178;5.900;2022-12-07T10:28:17;7.28;;;3.97;;
50337;SDS011;46221;51.178;5.900;2022-12-07T10:33:30;6.13;;;3.75;;
50337;SDS011;46221;51.178;5.900;2022-12-07T10:35:56;5.93;;;3.58;;
50337;SDS011;46221;51.178;5.900;2022-12-07T10:38:24;5.95;;;3.47;;
50337;SDS011;46221;51.178;5.900;2022-12-07T10:41:07;6.38;;;4.05;;
50337;SDS011;46221;51.178;5.900;2022-12-07T10:43:33;7.47;;;3.42;;
50337;SDS011;46221;51.178;5.900;2022-12-07T10:51:40;6.32;;;3.60;;
50337;SDS011;46221;51.178;5.900;2022-12-07T10:54:23;6.03;;;3.53;;
50337;SDS011;46221;51.178;5.900;2022-12-07T10:56:57;5.50;;;3.25;;
50337;SDS011;46221;51.178;5.900;2022-12-07T10:59:42;4.93;;;3.25;;
50337;SDS011;46221;51.178;5.900;2022-12-07T11:05:02;7.85;;;3.30;;
50337;SDS011;46221;51.178;5.900;2022-12-07T11:07:37;5.80;;;3.40;;
50337;SDS011;46221;51.178;5.900;2022-12-07T11:10:17;7.13;;;3.30;;
50337;SDS011;46221;51.178;5.900;2022-12-07T11:15:22;8.10;;;3.50;;
50337;SDS011;46221;51.178;5.900;2022-12-07T11:20:53;5.28;;;3.20;;
50337;SDS011;46221;51.178;5.900;2022-12-07T11:23:34;6.70;;;3.28;;
50337;SDS011;46221;51.178;5.900;2022-12-07T11:28:58;6.57;;;3.10;;
50337;SDS011;46221;51.178;5.900;2022-12-07T11:31:30;5.43;;;2.92;;
50337;SDS011;46221;51.178;5.900;2022-12-07T11:38:55;6.43;;;3.17;;
50337;SDS011;46221;51.178;5.900;2022-12-07T11:41:26;5.82;;;2.90;;
50337;SDS011;46221;51.178;5.900;2022-12-07T11:43:59;3.75;;;2.70;;
50337;SDS011;46221;51.178;5.900;2022-12-07T11:46:28;6.40;;;2.67;;
50337;SDS011;46221;51.178;5.900;2022-12-07T11:49:20;5.80;;;3.05;;
50337;SDS011;46221;51.178;5.900;2022-12-07T11:51:44;6.38;;;2.95;;
50337;SDS011;46221;51.178;5.900;2022-12-07T11:54:34;4.93;;;2.60;;
50337;SDS011;46221;51.178;5.900;2022-12-07T11:56:59;4.38;;;2.53;;
50337;SDS011;46221;51.178;5.900;2022-12-07T11:59:38;5.55;;;2.40;;
50337;SDS011;46221;51.178;5.900;2022-12-07T12:02:13;4.22;;;2.10;;
50337;SDS011;46221;51.178;5.900;2022-12-07T12:07:26;5.18;;;2.38;;
50337;SDS011;46221;51.178;5.900;2022-12-07T12:15:32;5.07;;;2.22;;
50337;SDS011;46221;51.178;5.900;2022-12-07T12:20:29;5.35;;;2.15;;
50337;SDS011;46221;51.178;5.900;2022-12-07T12:25:24;5.18;;;2.30;;
50337;SDS011;46221;51.178;5.900;2022-12-07T12:27:52;7.05;;;2.38;;
50337;SDS011;46221;51.178;5.900;2022-12-07T12:30:32;6.13;;;2.42;;
50337;SDS011;46221;51.178;5.900;2022-12-07T12:33:42;6.13;;;2.50;;
50337;SDS011;46221;51.178;5.900;2022-12-07T12:36:16;4.63;;;2.53;;
50337;SDS011;46221;51.178;5.900;2022-12-07T12:44:50;4.88;;;2.13;;
50337;SDS011;46221;51.178;5.900;2022-12-07T12:47:00;4.88;;;2.20;;
50337;SDS011;46221;51.178;5.900;2022-12-07T12:51:55;5.55;;;2.80;;
50337;SDS011;46221;51.178;5.900;2022-12-07T13:01:47;4.95;;;2.30;;
50337;SDS011;46221;51.178;5.900;2022-12-07T13:04:16;4.50;;;2.58;;
50337;SDS011;46221;51.178;5.900;2022-12-07T13:06:44;4.75;;;2.85;;
50337;SDS011;46221;51.178;5.900;2022-12-07T13:09:23;5.97;;;2.13;;
50337;SDS011;46221;51.178;5.900;2022-12-07T13:11:54;5.55;;;2.28;;
50337;SDS011;46221;51.178;5.900;2022-12-07T13:17:11;4.38;;;1.90;;
50337;SDS011;46221;51.178;5.900;2022-12-07T13:22:32;6.05;;;2.47;;
50337;SDS011;46221;51.178;5.900;2022-12-07T13:27:30;6.18;;;2.15;;
50337;SDS011;46221;51.178;5.900;2022-12-07T13:29:57;5.10;;;2.35;;
50337;SDS011;46221;51.178;5.900;2022-12-07T13:32:24;4.05;;;2.10;;
50337;SDS011;46221;51.178;5.900;2022-12-07T13:34:51;4.32;;;2.30;;
50337;SDS011;46221;51.178;5.900;2022-12-07T13:37:24;5.07;;;2.20;;
50337;SDS011;46221;51.178;5.900;2022-12-07T13:39:53;4.38;;;2.20;;
50337;SDS011;46221;51.178;5.900;2022-12-07T13:44:46;4.15;;;2.05;;
50337;SDS011;46221;51.178;5.900;2022-12-07T13:49:46;4.55;;;2.10;;
50337;SDS011;46221;51.178;5.900;2022-12-07T13:55:28;4.95;;;1.92;;
50337;SDS011;46221;51.178;5.900;2022-12-07T13:57:34;4.30;;;1.88;;
50337;SDS011;46221;51.178;5.900;2022-12-07T14:00:02;6.07;;;1.80;;
50337;SDS011;46221;51.178;5.900;2022-12-07T14:02:30;3.42;;;1.63;;
50337;SDS011;46221;51.178;5.900;2022-12-07T14:05:23;3.95;;;1.77;;
50337;SDS011;46221;51.178;5.900;2022-12-07T14:07:54;3.30;;;1.80;;
50337;SDS011;46221;51.178;5.900;2022-12-07T14:12:53;3.50;;;1.58;;
50337;SDS011;46221;51.178;5.900;2022-12-07T14:15:21;4.00;;;1.67;;
50337;SDS011;46221;51.178;5.900;2022-12-07T14:17:50;4.10;;;1.52;;
50337;SDS011;46221;51.178;5.900;2022-12-07T14:20:36;4.18;;;1.60;;
50337;SDS011;46221;51.178;5.900;2022-12-07T14:23:03;3.42;;;1.85;;
50337;SDS011;46221;51.178;5.900;2022-12-07T14:25:48;4.97;;;1.85;;
50337;SDS011;46221;51.178;5.900;2022-12-07T14:28:29;4.50;;;1.90;;
50337;SDS011;46221;51.178;5.900;2022-12-07T14:30:57;4.38;;;2.40;;
50337;SDS011;46221;51.178;5.900;2022-12-07T14:33:23;5.57;;;1.85;;
50337;SDS011;46221;51.178;5.900;2022-12-07T14:35:50;4.95;;;2.35;;
50337;SDS011;46221;51.178;5.900;2022-12-07T14:38:21;4.75;;;1.80;;
50337;SDS011;46221;51.178;5.900;2022-12-07T14:40:48;6.80;;;2.45;;
50337;SDS011;46221;51.178;5.900;2022-12-07T14:43:15;5.50;;;1.85;;
50337;SDS011;46221;51.178;5.900;2022-12-07T14:45:42;6.30;;;2.15;;
50337;SDS011;46221;51.178;5.900;2022-12-07T14:48:12;5.65;;;2.10;;
50337;SDS011;46221;51.178;5.900;2022-12-07T14:50:59;4.35;;;1.60;;
50337;SDS011;46221;51.178;5.900;2022-12-07T14:53:46;4.80;;;1.80;;
50337;SDS011;46221;51.178;5.900;2022-12-07T14:56:22;3.40;;;1.65;;
50337;SDS011;46221;51.178;5.900;2022-12-07T14:58:48;5.22;;;2.00;;
50337;SDS011;46221;51.178;5.900;2022-12-07T15:01:15;4.43;;;1.63;;
50337;SDS011;46221;51.178;5.900;2022-12-07T15:03:41;5.63;;;1.95;;
50337;SDS011;46221;51.178;5.900;2022-12-07T15:06:10;5.40;;;2.42;;
50337;SDS011;46221;51.178;5.900;2022-12-07T15:08:39;4.20;;;2.25;;
50337;SDS011;46221;51.178;5.900;2022-12-07T15:11:05;3.70;;;2.00;;
50337;SDS011;46221;51.178;5.900;2022-12-07T15:13:31;5.70;;;2.65;;
50337;SDS011;46221;51.178;5.900;2022-12-07T15:16:18;3.25;;;1.83;;
50337;SDS011;46221;51.178;5.900;2022-12-07T15:18:45;4.07;;;2.00;;
50337;SDS011;46221;51.178;5.900;2022-12-07T15:21:31;4.57;;;2.10;;
50337;SDS011;46221;51.178;5.900;2022-12-07T15:23:58;4.82;;;1.90;;
50337;SDS011;46221;51.178;5.900;2022-12-07T15:26:24;3.55;;;1.85;;
50337;SDS011;46221;51.178;5.900;2022-12-07T15:28:52;4.32;;;1.88;;
50337;SDS011;46221;51.178;5.900;2022-12-07T15:31:18;4.80;;;2.00;;
50337;SDS011;46221;51.178;5.900;2022-12-07T15:34:05;4.63;;;2.33;;
50337;SDS011;46221;51.178;5.900;2022-12-07T15:36:32;4.60;;;1.75;;
50337;SDS011;46221;51.178;5.900;2022-12-07T15:38:59;5.40;;;1.70;;
50337;SDS011;46221;51.178;5.900;2022-12-07T15:41:41;8.57;;;2.03;;
50337;SDS011;46221;51.178;5.900;2022-12-07T15:44:09;5.10;;;2.72;;
50337;SDS011;46221;51.178;5.900;2022-12-07T15:46:56;4.00;;;1.85;;
50337;SDS011;46221;51.178;5.900;2022-12-07T15:49:23;5.15;;;2.10;;
50337;SDS011;46221;51.178;5.900;2022-12-07T15:51:49;4.38;;;2.40;;
50337;SDS011;46221;51.178;5.900;2022-12-07T15:54:18;2.90;;;1.90;;
50337;SDS011;46221;51.178;5.900;2022-12-07T15:56:45;4.13;;;2.00;;
50337;SDS011;46221;51.178;5.900;2022-12-07T15:59:14;5.10;;;2.30;;
50337;SDS011;46221;51.178;5.900;2022-12-07T16:01:44;5.82;;;2.45;;
50337;SDS011;46221;51.178;5.900;2022-12-07T16:04:10;6.03;;;2.78;;
50337;SDS011;46221;51.178;5.900;2022-12-07T16:06:37;26.55;;;13.65;;
50337;SDS011;46221;51.178;5.900;2022-12-07T16:09:04;28.15;;;15.50;;
50337;SDS011;46221;51.178;5.900;2022-12-07T16:11:30;35.83;;;18.90;;
50337;SDS011;46221;51.178;5.900;2022-12-07T16:13:57;38.67;;;20.17;;
50337;SDS011;46221;51.178;5.900;2022-12-07T16:16:23;37.13;;;19.27;;
50337;SDS011;46221;51.178;5.900;2022-12-07T16:18:49;38.15;;;20.00;;
50337;SDS011;46221;51.178;5.900;2022-12-07T16:21:19;34.78;;;18.48;;
50337;SDS011;46221;51.178;5.900;2022-12-07T16:23:50;30.33;;;16.98;;
50337;SDS011;46221;51.178;5.900;2022-12-07T16:26:18;31.33;;;16.60;;
50337;SDS011;46221;51.178;5.900;2022-12-07T16:28:45;31.50;;;16.20;;
50337;SDS011;46221;51.178;5.900;2022-12-07T16:31:12;28.23;;;16.50;;
50337;SDS011;46221;51.178;5.900;2022-12-07T16:33:39;30.42;;;15.30;;
50337;SDS011;46221;51.178;5.900;2022-12-07T16:36:09;26.77;;;15.15;;